Time;durP1;ratioP1;P1;durP2;ratioP2;P2;SDS_P1;SDS_P2;PMS_P1;PMS_P2;Temp;Humidity;BMP_temperature;BMP_pressure;BME280_temperature;BME280_humidity;BME280_pressure;Samples;Min_cycle;Max_cycle;Signal;HPM_P1;HPM_P2
2021/07/18 00:00:55;;;;;;;6.10;2.42;;;19.00;99.90;;;17.71;100.00;101117.00;3514459;39;104011;-81
2021/07/18 00:03:22;;;;;;;4.22;2.08;;;20.00;99.90;;;17.69;100.00;101136.13;3516304;39;102597;-85
2021/07/18 00:05:49;;;;;;;2.53;2.33;;;18.90;99.90;;;17.66;100.00;101152.75;3512149;39;102743;-85
2021/07/18 00:08:16;;;;;;;2.40;1.73;;;18.90;99.90;;;17.56;100.00;101168.34;3524308;39;100325;-82
2021/07/18 00:10:43;;;;;;;4.68;2.50;;;19.80;99.90;;;17.51;100.00;101187.00;3521538;39;101072;-84
2021/07/18 00:13:10;;;;;;;3.70;1.95;;;18.80;99.90;;;17.46;100.00;101211.03;3523714;39;103423;-83
2021/07/18 00:15:37;;;;;;;2.78;1.88;;;18.70;99.90;;;17.49;100.00;101230.47;3529814;39;101661;-83
2021/07/18 00:18:06;;;;;;;5.20;2.00;;;18.70;99.90;;;17.45;100.00;101256.19;3523497;39;99901;-83
2021/07/18 00:20:33;;;;;;;2.00;1.60;;;18.60;99.90;;;17.37;100.00;101279.75;3521409;39;101158;-84
2021/07/18 00:23:00;;;;;;;5.00;2.00;;;18.60;99.90;;;17.40;100.00;101301.06;3521660;39;103228;-83
2021/07/18 00:25:27;;;;;;;3.88;2.67;;;19.60;99.90;;;17.36;100.00;101322.19;3518764;39;100587;-83
2021/07/18 00:27:54;;;;;;;2.65;2.08;;;18.60;99.90;;;17.34;100.00;101348.59;3517451;39;99908;-84
2021/07/18 00:30:22;;;;;;;3.45;1.98;;;19.60;99.90;;;17.39;100.00;101369.72;3523009;39;101147;-84
2021/07/18 00:32:49;;;;;;;2.50;2.13;;;18.50;99.90;;;17.39;100.00;101369.72;3519074;39;100691;-82
2021/07/18 00:35:18;;;;;;;4.70;2.58;;;18.50;99.90;;;17.35;100.00;101380.03;3518274;39;102064;-83
2021/07/18 00:37:45;;;;;;;3.75;2.13;;;18.50;99.90;;;17.34;100.00;101386.47;3529355;39;100004;-82
2021/07/18 00:40:13;;;;;;;9.07;2.72;;;18.40;99.90;;;17.24;100.00;101378.56;3530515;39;100573;-83
2021/07/18 00:42:40;;;;;;;4.22;1.98;;;18.40;99.90;;;17.21;100.00;101397.00;3533367;39;101172;-84
2021/07/18 00:45:12;;;;;;;2.42;1.92;;;19.40;99.90;;;17.26;100.00;101416.25;3534824;39;101384;-84
2021/07/18 00:47:41;;;;;;;2.60;1.50;;;18.40;99.90;;;17.28;100.00;101418.78;3536358;39;100107;-81
2021/07/18 00:50:12;;;;;;;5.80;2.25;;;18.40;99.90;;;17.31;100.00;101421.97;3527391;39;102798;-85
2021/07/18 00:52:41;;;;;;;4.38;2.25;;;18.40;99.90;;;17.39;100.00;101421.13;3538536;39;101265;-84
2021/07/18 00:55:11;;;;;;;2.70;1.98;;;18.40;99.90;;;17.43;100.00;101417.06;3545648;39;100707;-84
2021/07/18 00:57:39;;;;;;;4.10;2.08;;;18.50;99.90;;;17.54;100.00;101411.25;3537808;39;100221;-83
2021/07/18 01:00:10;;;;;;;3.67;2.13;;;18.60;99.90;;;17.57;100.00;101400.03;3537653;39;102995;-84
2021/07/18 01:02:38;;;;;;;2.50;1.92;;;18.70;99.90;;;17.65;100.00;101388.38;3523620;39;102857;-83
2021/07/18 01:05:09;;;;;;;2.72;1.80;;;18.70;99.90;;;17.63;100.00;101375.03;3527118;39;100705;-85
2021/07/18 01:07:36;;;;;;;2.17;1.67;;;18.70;99.90;;;17.63;100.00;101364.22;3527979;39;100095;-83
2021/07/18 01:10:07;;;;;;;3.13;2.25;;;19.10;99.90;;;17.69;100.00;101349.09;3526437;39;100910;-85
2021/07/18 01:12:35;;;;;;;1.83;1.38;;;18.80;99.90;;;17.59;100.00;101336.59;3527532;39;102812;-82
2021/07/18 01:15:04;;;;;;;2.67;1.73;;;18.90;99.90;;;17.57;100.00;101335.09;3528782;39;100184;-85
2021/07/18 01:17:31;;;;;;;1.95;1.33;;;19.20;99.90;;;17.52;100.00;101327.53;3527682;39;99990;-84
2021/07/18 01:19:59;;;;;;;1.42;1.33;;;18.90;99.90;;;17.50;100.00;101332.28;3528460;39;100777;-83
2021/07/18 01:22:28;;;;;;;1.95;1.63;;;19.00;99.90;;;17.46;100.00;101335.50;3521916;39;103188;-83
2021/07/18 01:24:56;;;;;;;3.78;1.75;;;19.60;99.90;;;17.39;100.00;101335.38;3526476;39;100269;-84
2021/07/18 01:27:23;;;;;;;3.63;1.92;;;18.80;99.90;;;17.37;100.00;101345.53;3526971;39;100062;-82
2021/07/18 01:29:51;;;;;;;2.53;2.03;;;19.00;99.90;;;17.36;100.00;101357.38;3532748;39;101085;-83
2021/07/18 01:32:19;;;;;;;1.70;1.52;;;19.40;99.90;;;17.30;100.00;101360.78;3527171;39;101124;-82
2021/07/18 01:34:46;;;;;;;2.35;2.00;;;18.90;99.90;;;17.29;100.00;101366.38;3524001;39;100345;-84
2021/07/18 01:37:13;;;;;;;5.30;1.85;;;18.80;99.90;;;17.31;100.00;101381.38;3531264;39;100437;-83
2021/07/18 01:39:42;;;;;;;2.80;1.60;;;18.90;99.90;;;17.29;100.00;101383.47;3524871;39;103025;-83
2021/07/18 01:42:09;;;;;;;1.92;1.75;;;18.80;99.90;;;17.21;100.00;101399.69;3536688;39;101978;-83
2021/07/18 01:44:36;;;;;;;2.17;1.52;;;18.90;99.90;;;17.19;100.00;101410.69;3536973;39;100192;-82
2021/07/18 01:47:05;;;;;;;3.35;2.00;;;18.90;99.90;;;17.15;100.00;101422.03;3534414;39;100041;-82
2021/07/18 01:49:32;;;;;;;4.95;1.88;;;18.80;99.90;;;17.13;100.00;101427.63;3527482;39;102621;-84
2021/07/18 01:51:59;;;;;;;4.18;1.83;;;18.80;99.90;;;17.07;100.00;101435.56;3534160;39;101038;-84
2021/07/18 01:54:27;;;;;;;2.88;1.92;;;18.80;99.90;;;17.09;100.00;101447.91;3533776;39;100840;-85
2021/07/18 01:56:55;;;;;;;3.13;1.83;;;19.80;99.90;;;17.08;100.00;101458.88;3535748;39;100220;-84
2021/07/18 01:59:22;;;;;;;1.92;1.77;;;18.70;99.90;;;17.06;100.00;101466.34;3521674;39;102730;-84
2021/07/18 02:01:49;;;;;;;1.55;1.45;;;18.70;99.90;;;17.02;100.00;101475.81;3526565;39;101301;-83
2021/07/18 02:04:16;;;;;;;3.25;1.98;;;19.70;99.90;;;16.98;100.00;101482.56;3523709;39;102299;-83
2021/07/18 02:06:43;;;;;;;2.15;1.50;;;18.60;99.90;;;16.91;100.00;101484.28;3529354;39;100201;-84
2021/07/18 02:09:10;;;;;;;5.13;2.35;;;18.60;99.90;;;16.89;100.00;101495.25;3526526;39;101299;-85
2021/07/18 02:11:37;;;;;;;2.78;1.65;;;18.50;99.90;;;16.82;100.00;101494.22;3526895;39;101202;-82
2021/07/18 02:14:06;;;;;;;3.58;2.22;;;18.70;99.90;;;16.78;100.00;101503.72;3524582;39;100679;-82
2021/07/18 02:16:33;;;;;;;2.42;1.88;;;18.40;99.90;;;16.74;100.00;101486.97;3512988;39;100372;-85
2021/07/18 02:19:08;;;;;;;2.83;1.70;;;19.40;99.90;;;16.69;100.00;101497.44;3523194;39;100608;-85
2021/07/18 02:21:36;;;;;;;4.22;2.15;;;18.30;99.90;;;16.64;100.00;101518.75;3523553;39;100956;-84
2021/07/18 02:24:03;;;;;;;13.45;1.73;;;18.40;99.90;;;16.59;100.00;101523.75;3525484;39;100316;-83
2021/07/18 02:26:31;;;;;;;3.85;1.80;;;18.10;99.90;;;16.62;100.00;101526.16;3532826;39;100025;-83
2021/07/18 02:28:59;;;;;;;4.68;2.08;;;18.10;99.90;;;16.58;100.00;101532.88;3513793;39;103105;-82
2021/07/18 02:31:28;;;;;;;3.17;2.30;;;18.60;99.90;;;16.49;100.00;101531.19;3521492;39;102893;-83
2021/07/18 02:33:55;;;;;;;3.17;2.15;;;18.80;99.90;;;16.45;100.00;101537.91;3524097;39;100300;-82
2021/07/18 02:36:22;;;;;;;2.80;1.92;;;17.80;99.90;;;16.42;100.00;101533.72;3509952;39;100416;-85
2021/07/18 02:38:49;;;;;;;2.22;1.65;;;17.80;99.90;;;16.39;100.00;101544.00;3523918;39;101355;-82
2021/07/18 02:41:16;;;;;;;4.38;1.90;;;18.20;99.90;;;16.38;100.00;101539.59;3519398;39;101475;-83
2021/07/18 02:43:43;;;;;;;3.03;1.90;;;16.70;99.90;;;16.38;100.00;101539.59;3524690;39;102618;-84
2021/07/18 02:46:10;;;;;;;1.83;1.70;;;18.70;99.90;;;16.33;100.00;101539.25;3539223;39;98978;-83
2021/07/18 02:48:39;;;;;;;2.53;1.63;;;17.70;99.90;;;16.30;100.00;101513.44;3543148;39;100146;-84
2021/07/18 02:51:07;;;;;;;2.58;1.65;;;18.70;99.90;;;16.23;100.00;101498.88;3533449;39;101335;-84
2021/07/18 02:53:34;;;;;;;2.72;1.92;;;17.60;99.90;;;16.15;100.00;101504.28;3534209;39;100850;-83
2021/07/18 02:56:01;;;;;;;4.57;2.60;;;17.60;99.90;;;16.12;100.00;101507.28;3528107;39;100572;-82
2021/07/18 02:58:28;;;;;;;2.92;1.48;;;17.50;99.90;;;16.07;100.00;101523.16;3522111;39;100666;-84
2021/07/18 03:00:55;;;;;;;2.65;1.75;;;17.60;99.90;;;16.01;100.00;101521.09;3523645;39;101273;-83
2021/07/18 03:03:22;;;;;;;4.38;2.00;;;17.40;99.90;;;15.95;100.00;101519.06;3524410;39;100597;-84
2021/07/18 03:05:51;;;;;;;2.95;1.58;;;17.40;99.90;;;15.90;100.00;101510.59;3513452;39;100107;-83
2021/07/18 03:08:18;;;;;;;10.75;2.35;;;17.30;99.90;;;15.90;100.00;101486.31;3521122;39;101618;-82
2021/07/18 03:10:45;;;;;;;5.63;1.80;;;17.20;99.90;;;15.85;100.00;101454.41;3523035;39;101343;-84
2021/07/18 03:13:12;;;;;;;2.63;1.63;;;18.30;99.90;;;15.84;100.00;101225.16;3523220;39;100240;-84
2021/07/18 03:15:40;;;;;;;4.15;2.83;;;17.10;99.90;;;15.82;100.00;101421.53;3513213;39;100226;-83
2021/07/18 03:18:08;;;;;;;3.72;2.08;;;17.10;99.90;;;15.78;100.00;101399.41;3519165;39;103175;-84
2021/07/18 03:20:36;;;;;;;3.53;1.40;;;17.10;99.90;;;15.78;100.00;101394.84;3512796;39;102213;-83
2021/07/18 03:23:05;;;;;;;8.82;2.17;;;17.00;99.90;;;15.77;100.00;101387.78;3528448;39;100882;-82
2021/07/18 03:25:32;;;;;;;6.00;1.55;;;17.00;99.90;;;15.74;100.00;101214.56;3539009;39;100054;-85
2021/07/18 03:27:59;;;;;;;2.63;2.05;;;17.00;99.90;;;15.80;100.00;101203.09;3531779;39;102314;-82
2021/07/18 03:30:27;;;;;;;4.03;2.35;;;17.00;99.90;;;15.79;100.00;101209.50;3530628;39;101343;-83
2021/07/18 03:32:54;;;;;;;2.15;1.90;;;18.10;99.90;;;15.78;100.00;101200.56;3531494;39;100623;-84
2021/07/18 03:35:21;;;;;;;5.00;2.47;;;16.90;99.90;;;15.78;100.00;101211.34;3523140;39;100096;-84
2021/07/18 03:37:48;;;;;;;5.25;2.00;;;16.90;99.90;;;15.78;100.00;101207.81;3512204;39;102811;-85
2021/07/18 03:40:18;;;;;;;2.97;1.88;;;16.90;99.90;;;15.72;100.00;101220.09;3510635;39;103379;-82
2021/07/18 03:42:47;;;;;;;3.10;2.03;;;17.20;99.90;;;15.68;100.00;101245.75;3520885;39;100524;-83
2021/07/18 03:45:15;;;;;;;6.18;2.17;;;17.80;99.90;;;15.65;100.00;101259.59;3520063;39;100236;-82
2021/07/18 03:47:43;;;;;;;3.55;2.22;;;16.90;99.90;;;15.61;100.00;101273.56;3510943;39;102713;-84
2021/07/18 03:50:13;;;;;;;2.92;1.83;;;17.10;99.90;;;15.59;100.00;101289.91;3519752;39;100346;-83
2021/07/18 03:52:40;;;;;;;3.97;2.55;;;16.90;99.90;;;15.53;100.00;101309.44;3535854;39;100468;-84
2021/07/18 03:55:09;;;;;;;3.63;2.20;;;16.90;99.90;;;15.56;100.00;101329.88;3523530;39;100216;-83
2021/07/18 03:57:38;;;;;;;2.08;1.88;;;16.90;99.90;;;15.56;100.00;101348.78;3528890;39;101234;-83
2021/07/18 04:00:07;;;;;;;4.45;2.13;;;16.80;99.90;;;15.54;100.00;101357.00;3532936;39;101045;-82
2021/07/18 04:02:34;;;;;;;2.60;2.25;;;16.80;99.90;;;15.57;100.00;101370.19;3520459;39;101917;-84
2021/07/18 04:05:01;;;;;;;4.57;1.98;;;17.80;99.90;;;15.56;100.00;101365.81;3536983;39;100109;-84
2021/07/18 04:07:32;;;;;;;2.85;2.17;;;16.80;99.90;;;15.55;100.00;101366.81;3519443;39;103522;-84
2021/07/18 04:10:00;;;;;;;2.65;2.08;;;16.80;99.90;;;15.65;100.00;101375.59;3532239;39;101655;-83
2021/07/18 04:12:27;;;;;;;2.35;2.15;;;16.80;99.90;;;15.64;100.00;101381.16;3531512;39;100778;-85
2021/07/18 04:14:56;;;;;;;13.60;2.47;;;16.80;99.90;;;15.64;100.00;101387.41;3534034;39;100138;-84
2021/07/18 04:17:23;;;;;;;1.92;1.58;;;16.90;99.90;;;15.70;100.00;101391.31;3531451;39;101240;-83
2021/07/18 04:19:51;;;;;;;8.50;2.53;;;16.90;99.90;;;15.75;100.00;101386.25;3527145;39;101469;-84
2021/07/18 04:22:19;;;;;;;1.95;1.83;;;16.90;99.90;;;15.80;100.00;101379.34;3520327;39;100555;-84
2021/07/18 04:24:46;;;;;;;1.98;1.73;;;16.90;99.90;;;15.94;100.00;101387.81;3523486;39;100009;-84
2021/07/18 04:27:13;;;;;;;3.92;2.33;;;17.00;99.90;;;15.91;100.00;101383.59;3510640;39;102778;-85
2021/07/18 04:29:40;;;;;;;5.80;2.35;;;17.00;99.90;;;16.04;100.00;101394.75;3520442;39;101530;-84
2021/07/18 04:32:09;;;;;;;2.28;2.08;;;17.10;99.90;;;16.08;100.00;101390.66;3520911;39;100436;-83
2021/07/18 04:34:40;;;;;;;3.67;2.03;;;17.20;99.90;;;16.14;100.00;101378.38;3521163;39;100033;-84
2021/07/18 04:37:08;;;;;;;4.88;1.83;;;17.20;99.90;;;16.34;100.00;101363.50;3521481;39;100887;-83
2021/07/18 04:39:35;;;;;;;6.35;1.83;;;17.80;99.90;;;16.56;100.00;101340.38;3524200;39;101072;-83
2021/07/18 04:42:03;;;;;;;2.70;1.45;;;17.40;99.90;;;16.91;100.00;101312.09;3506306;39;101262;-84
2021/07/18 04:44:30;;;;;;;2.60;1.92;;;17.60;99.90;;;17.01;100.00;101284.84;3508646;39;100201;-82
2021/07/18 04:46:57;;;;;;;2.20;1.55;;;17.70;99.90;;;17.12;100.00;101260.97;3508593;39;103167;-83
2021/07/18 04:49:27;;;;;;;5.88;2.22;;;17.80;99.90;;;16.86;100.00;101209.06;3512207;39;101362;-83
2021/07/18 04:51:55;;;;;;;2.72;1.77;;;17.90;99.90;;;17.06;100.00;101183.25;3510164;39;100571;-82
2021/07/18 04:54:22;;;;;;;2.05;1.73;;;18.00;99.90;;;17.34;100.00;101215.19;3500734;39;100644;-84
2021/07/18 04:56:51;;;;;;;3.97;1.45;;;19.20;99.90;;;17.18;100.00;101219.69;3508058;39;100917;-82
2021/07/18 04:59:18;;;;;;;3.03;1.48;;;18.30;99.90;;;17.40;100.00;101172.03;3509730;39;100828;-84
2021/07/18 05:01:45;;;;;;;3.10;2.03;;;18.30;99.90;;;17.50;100.00;101128.50;3512829;39;100376;-83
2021/07/18 05:04:13;;;;;;;7.15;1.40;;;18.50;99.90;;;17.61;100.00;101082.03;3503331;39;100608;-85
2021/07/18 05:06:41;;;;;;;2.13;1.33;;;18.40;99.90;;;17.26;100.00;101031.34;3511216;39;101057;-83
2021/07/18 05:09:08;;;;;;;2.90;1.52;;;18.60;99.90;;;17.37;100.00;101023.59;3513668;39;101195;-84
2021/07/18 05:11:35;;;;;;;3.15;1.45;;;17.70;99.90;;;17.29;100.00;101021.00;3512288;39;100685;-84
2021/07/18 05:14:02;;;;;;;2.67;1.63;;;18.70;99.90;;;17.14;100.00;101012.00;3510999;39;100139;-84
2021/07/18 05:16:30;;;;;;;3.85;1.27;;;19.00;99.90;;;17.30;100.00;101059.72;3510423;39;101467;-82
2021/07/18 05:18:57;;;;;;;3.08;1.15;;;18.90;99.90;;;17.05;100.00;101040.16;3509958;39;103338;-83
2021/07/18 05:21:25;;;;;;;2.55;1.45;;;18.80;99.90;;;16.83;100.00;101037.25;3511258;39;102100;-85
2021/07/18 05:23:53;;;;;;;2.67;1.58;;;18.80;99.90;;;17.23;100.00;101027.97;3537855;39;99781;-84
2021/07/18 05:26:23;;;;;;;2.03;1.40;;;18.80;99.90;;;17.60;100.00;101023.53;3521751;39;100700;-84
2021/07/18 05:28:50;;;;;;;2.35;1.38;;;19.80;99.90;;;18.21;100.00;101011.47;3523985;39;100886;-84
2021/07/18 05:31:17;;;;;;;2.05;1.45;;;18.90;99.90;;;18.10;100.00;100970.50;3524892;39;100521;-83
2021/07/18 05:33:44;;;;;;;4.57;1.85;;;19.00;99.90;;;18.01;100.00;100918.31;3522825;39;100218;-83
2021/07/18 05:36:11;;;;;;;2.70;1.33;;;19.20;99.90;;;18.26;100.00;100907.97;3522023;39;100896;-82
2021/07/18 05:38:39;;;;;;;2.03;1.55;;;19.30;99.90;;;18.37;100.00;100876.81;3519943;39;101637;-83
2021/07/18 05:41:07;;;;;;;1.35;1.17;;;20.50;99.90;;;18.67;100.00;100882.94;3518688;39;101875;-84
2021/07/18 05:43:34;;;;;;;2.20;1.35;;;19.70;99.90;;;18.81;100.00;100857.59;3517991;39;100135;-83
2021/07/18 05:46:01;;;;;;;4.63;1.75;;;20.80;99.90;;;19.62;100.00;100842.41;3524629;39;100929;-86
2021/07/18 05:48:30;;;;;;;1.40;0.80;;;20.00;99.90;;;19.49;100.00;100840.47;3515454;39;103495;-84
2021/07/18 05:50:57;;;;;;;1.42;1.17;;;21.00;99.90;;;19.03;100.00;100818.53;3524230;39;101011;-84
2021/07/18 05:53:24;;;;;;;2.25;1.45;;;20.40;99.90;;;19.58;100.00;100822.13;3508499;39;100345;-84
2021/07/18 05:55:51;;;;;;;1.08;0.90;;;21.10;99.90;;;18.59;100.00;100798.03;3506028;39;101719;-83
2021/07/18 05:58:20;;;;;;;1.45;1.23;;;20.70;99.90;;;19.35;100.00;100801.56;3510277;39;101648;-83
2021/07/18 06:00:47;;;;;;;4.20;1.17;;;21.90;99.90;;;19.46;100.00;100780.31;3508865;39;100341;-83
2021/07/18 06:03:14;;;;;;;1.95;1.17;;;21.00;99.90;;;18.80;100.00;100774.56;3523417;39;100036;-81
2021/07/18 06:05:41;;;;;;;1.92;1.30;;;21.10;99.90;;;19.04;100.00;100781.41;3535073;39;100837;-83
2021/07/18 06:08:08;;;;;;;3.00;1.20;;;22.00;99.90;;;19.35;100.00;100785.28;3509507;39;101992;-80
2021/07/18 06:10:35;;;;;;;1.58;1.17;;;21.30;99.90;;;19.01;100.00;100788.06;3505186;39;101254;-81
2021/07/18 06:13:02;;;;;;;2.10;1.15;;;21.40;99.90;;;19.43;100.00;100786.97;3513397;39;100218;-81
2021/07/18 06:15:31;;;;;;;2.70;1.25;;;21.50;99.90;;;19.84;100.00;100786.06;3517486;39;101695;-81
2021/07/18 06:17:58;;;;;;;1.52;1.10;;;21.60;99.90;;;20.20;100.00;100780.25;3513632;39;101288;-83
2021/07/18 06:20:25;;;;;;;1.58;1.15;;;21.70;99.90;;;19.89;100.00;100762.69;3516638;39;100438;-82
2021/07/18 06:22:52;;;;;;;4.15;0.80;;;21.90;99.90;;;19.48;100.00;100773.63;3515069;39;100591;-82
2021/07/18 06:25:19;;;;;;;1.15;1.00;;;22.00;99.90;;;19.69;100.00;100772.66;3516074;39;100977;-83
2021/07/18 06:27:47;;;;;;;4.03;0.93;;;22.20;99.90;;;20.54;100.00;100771.88;3500475;39;103124;-84
2021/07/18 06:30:16;;;;;;;1.42;0.88;;;22.30;99.90;;;20.44;100.00;100757.91;3515567;39;100768;-83
2021/07/18 06:32:45;;;;;;;2.03;1.33;;;22.50;99.90;;;20.50;100.00;100751.63;3512585;39;100264;-82
2021/07/18 06:35:12;;;;;;;1.73;1.17;;;22.60;99.90;;;20.83;100.00;100750.69;3495336;39;103511;-84
2021/07/18 06:37:40;;;;;;;0.88;0.80;;;23.60;99.90;;;21.30;100.00;100749.50;3510614;39;101570;-84
2021/07/18 06:40:08;;;;;;;3.33;1.27;;;23.00;99.90;;;21.55;100.00;100733.22;3515241;39;100468;-83
2021/07/18 06:42:36;;;;;;;2.35;0.82;;;23.40;99.90;;;21.51;100.00;100728.22;3517061;39;100262;-83
2021/07/18 06:45:05;;;;;;;1.35;0.88;;;23.80;99.90;;;20.69;100.00;100722.72;3525640;39;101221;-83
2021/07/18 06:47:32;;;;;;;2.70;1.02;;;23.60;99.90;;;21.00;100.00;100722.00;3519131;39;100567;-83
2021/07/18 06:50:01;;;;;;;1.27;0.93;;;24.50;99.90;;;21.17;100.00;100728.59;3516224;39;100100;-83
2021/07/18 06:52:28;;;;;;;1.13;0.80;;;23.80;99.90;;;20.75;100.00;100733.59;3516050;39;100256;-83
2021/07/18 06:54:55;;;;;;;2.05;0.80;;;24.30;99.90;;;21.22;100.00;100739.72;3515940;39;100567;-82
2021/07/18 06:57:23;;;;;;;1.02;0.75;;;24.00;99.90;;;21.01;100.00;100767.19;3503937;39;103197;-81
2021/07/18 06:59:50;;;;;;;0.85;0.80;;;24.20;99.90;;;21.42;100.00;100759.47;3516096;39;100395;-82
2021/07/18 07:02:18;;;;;;;2.65;1.00;;;24.30;99.90;;;21.71;100.00;100755.34;3516605;39;100723;-84
2021/07/18 07:04:45;;;;;;;4.28;1.10;;;24.40;99.90;;;21.64;100.00;100743.63;3515217;39;100873;-82
2021/07/18 07:07:13;;;;;;;2.08;1.25;;;25.20;99.90;;;21.98;100.00;100733.34;3514963;39;100749;-83
2021/07/18 07:09:40;;;;;;;1.23;0.88;;;25.50;99.90;;;21.99;100.00;100740.50;3513888;39;100920;-82
2021/07/18 07:12:09;;;;;;;1.15;0.93;;;25.10;99.90;;;21.24;100.00;100739.50;3503338;39;100576;-83
2021/07/18 07:14:36;;;;;;;2.15;0.82;;;24.90;99.90;;;20.66;100.00;100753.03;3513486;39;100808;-86
2021/07/18 07:17:04;;;;;;;1.20;1.10;;;25.00;99.90;;;21.61;100.00;100755.00;3514473;39;101265;-84
2021/07/18 07:19:31;;;;;;;8.65;1.20;;;25.10;99.90;;;22.29;100.00;100755.13;3517024;39;100661;-82
2021/07/18 07:21:58;;;;;;;0.95;0.90;;;25.50;99.90;;;21.90;100.00;100747.22;3531893;39;100975;-82
2021/07/18 07:24:27;;;;;;;1.05;0.70;;;25.70;99.90;;;21.28;100.00;100754.31;3515473;39;101179;-81
2021/07/18 07:26:54;;;;;;;4.43;1.05;;;25.60;99.90;;;21.45;100.00;100758.22;3514597;39;101382;-82
2021/07/18 07:29:21;;;;;;;1.70;1.08;;;26.40;99.90;;;21.30;100.00;100744.88;3514542;39;100365;-82
2021/07/18 07:31:48;;;;;;;2.20;1.13;;;25.90;99.90;;;21.40;100.00;100750.69;3513331;39;100277;-81
2021/07/18 07:34:15;;;;;;;1.85;1.00;;;25.80;99.90;;;21.15;100.00;100761.47;3509678;39;101343;-81
2021/07/18 07:36:42;;;;;;;1.00;0.68;;;26.50;99.90;;;20.93;100.00;100765.53;3513494;39;101687;-83
2021/07/18 07:39:09;;;;;;;1.13;0.80;;;26.30;99.90;;;20.82;100.00;100774.34;3504371;39;102540;-82
2021/07/18 07:41:38;;;;;;;1.30;0.95;;;26.00;99.90;;;21.55;100.00;100772.19;3513540;39;100160;-81
2021/07/18 07:44:06;;;;;;;2.95;0.70;;;25.60;99.90;;;21.69;100.00;100779.22;3514370;39;100822;-80
2021/07/18 07:46:33;;;;;;;1.30;0.90;;;25.50;99.90;;;21.71;100.00;100770.84;3503536;39;102766;-82
2021/07/18 07:49:00;;;;;;;0.77;0.60;;;25.90;99.90;;;22.41;100.00;100766.13;3513107;39;100685;-82
2021/07/18 07:51:27;;;;;;;0.77;0.77;;;25.60;99.90;;;22.31;100.00;100746.72;3514945;39;100238;-82
2021/07/18 07:53:54;;;;;;;1.65;0.85;;;25.80;99.90;;;22.19;100.00;100738.44;3514539;39;101054;-82
2021/07/18 07:56:21;;;;;;;1.63;0.90;;;26.00;99.90;;;21.93;100.00;100733.19;3514498;39;101157;-81
2021/07/18 07:58:50;;;;;;;1.25;0.95;;;26.10;99.90;;;21.76;100.00;100738.34;3514482;39;100930;-82
2021/07/18 08:01:17;;;;;;;2.00;0.98;;;26.20;99.90;;;22.10;100.00;100735.16;3526543;39;100156;-81
2021/07/18 08:03:44;;;;;;;1.73;1.23;;;26.50;99.90;;;22.46;100.00;100728.97;3536359;39;100202;-82
2021/07/18 08:06:11;;;;;;;2.03;0.80;;;26.90;99.90;;;23.17;100.00;100727.53;3526300;39;100307;-82
2021/07/18 08:08:38;;;;;;;1.48;1.00;;;27.00;99.90;;;23.10;100.00;100718.59;3514925;39;100496;-82
2021/07/18 08:11:07;;;;;;;0.75;0.68;;;26.50;99.80;;;22.99;100.00;100709.31;3504337;39;100168;-82
2021/07/18 08:13:34;;;;;;;0.90;0.50;;;26.70;99.00;;;22.51;100.00;100709.19;3515423;39;100604;-81
2021/07/18 08:16:03;;;;;;;3.10;1.58;;;27.30;97.90;;;23.63;100.00;100716.81;3504979;39;102720;-82
2021/07/18 08:18:30;;;;;;;0.75;0.75;;;27.70;98.40;;;23.97;100.00;100698.84;3504954;39;101928;-82
2021/07/18 08:20:57;;;;;;;1.48;0.50;;;27.10;97.90;;;24.20;100.00;100694.44;3513767;39;100197;-82
2021/07/18 08:23:24;;;;;;;1.17;0.60;;;27.40;97.00;;;24.06;100.00;100693.00;3513362;39;100740;-82
2021/07/18 08:25:51;;;;;;;1.60;0.80;;;27.70;96.00;;;23.82;100.00;100694.88;3514182;39;101376;-83
2021/07/18 08:28:18;;;;;;;2.83;1.35;;;27.80;95.30;;;23.73;100.00;100704.50;3513756;39;100674;-82
2021/07/18 08:30:46;;;;;;;1.13;0.98;;;28.10;94.00;;;23.01;100.00;100693.50;3514596;39;100106;-83
2021/07/18 08:33:14;;;;;;;1.38;0.70;;;28.20;92.50;;;23.08;100.00;100698.91;3514291;39;100834;-80
2021/07/18 08:35:41;;;;;;;0.88;0.70;;;28.90;91.70;;;23.89;100.00;100699.16;3504459;39;102872;-81
2021/07/18 08:38:08;;;;;;;1.08;1.00;;;28.30;91.60;;;24.05;100.00;100688.63;3504108;39;102484;-82
2021/07/18 08:40:38;;;;;;;0.95;0.70;;;29.00;91.40;;;23.49;100.00;100698.91;3514542;39;100250;-82
2021/07/18 08:43:06;;;;;;;1.10;0.80;;;28.60;90.40;;;22.47;100.00;100695.19;3517949;39;100518;-81
2021/07/18 08:45:34;;;;;;;0.85;0.57;;;28.60;88.50;;;22.72;100.00;100703.28;3513476;39;101316;-82
2021/07/18 08:48:01;;;;;;;1.23;0.88;;;28.60;86.20;;;22.37;100.00;100713.97;3504550;39;101965;-81
2021/07/18 08:50:30;;;;;;;1.38;0.73;;;29.10;86.50;;;22.50;100.00;100718.44;3503874;39;100649;-80
2021/07/18 08:52:58;;;;;;;0.80;0.50;;;28.10;86.60;;;23.40;100.00;100711.25;3514274;39;101511;-81
2021/07/18 08:55:26;;;;;;;1.17;0.70;;;28.30;87.80;;;24.03;100.00;100701.69;3514328;39;101564;-82
2021/07/18 08:57:54;;;;;;;0.75;0.63;;;28.20;88.20;;;23.48;100.00;100693.72;3513773;39;100538;-81
2021/07/18 09:00:22;;;;;;;5.03;0.88;;;28.30;87.40;;;23.40;100.00;100689.41;3513868;39;100586;-82
2021/07/18 09:02:49;;;;;;;7.35;1.30;;;28.50;87.30;;;24.10;100.00;100683.28;3503194;39;103786;-81
2021/07/18 09:05:17;;;;;;;1.13;0.65;;;28.50;86.60;;;23.58;100.00;100680.34;3515354;39;101635;-82
2021/07/18 09:07:50;;;;;;;0.40;0.40;;;28.70;84.50;;;23.42;100.00;100675.53;3514116;39;100844;-82
2021/07/18 09:10:23;;;;;;;0.90;0.55;;;28.90;83.50;;;24.71;100.00;100677.31;3503730;39;100669;-82
2021/07/18 09:13:09;;;;;;;1.13;0.73;;;28.90;83.60;;;24.45;100.00;100669.63;3511614;39;101126;-82
2021/07/18 09:15:42;;;;;;;1.65;0.70;;;29.10;83.10;;;23.42;100.00;100675.53;3511592;39;100826;-80
2021/07/18 09:18:12;;;;;;;0.52;0.52;;;29.10;79.70;;;23.48;100.00;100672.72;3514432;39;100972;-82
2021/07/18 09:20:43;;;;;;;0.32;0.30;;;29.10;79.50;;;24.79;100.00;100667.88;3514235;39;100080;-82
2021/07/18 09:23:16;;;;;;;3.83;1.15;;;29.30;80.60;;;23.96;100.00;100661.66;3525717;39;101022;-81
2021/07/18 09:25:44;;;;;;;0.77;0.60;;;29.30;77.90;;;24.70;100.00;100670.16;3512392;39;101983;-83
2021/07/18 09:28:14;;;;;;;0.70;0.50;;;29.30;77.40;;;24.11;100.00;100661.16;3512742;39;102164;-82
2021/07/18 09:30:41;;;;;;;0.50;0.50;;;29.30;76.10;;;24.38;100.00;100669.72;3503936;39;100255;-83
2021/07/18 09:33:22;;;;;;;0.47;0.47;;;29.40;76.00;;;23.84;100.00;100674.47;3514291;39;100902;-84
2021/07/18 09:35:50;;;;;;;0.60;0.60;;;29.80;76.10;;;24.45;100.00;100664.97;3514961;39;100916;-83
2021/07/18 09:38:25;;;;;;;0.85;0.73;;;29.40;75.90;;;24.97;100.00;100667.75;3514537;39;100952;-81
2021/07/18 09:40:58;;;;;;;0.82;0.70;;;29.50;76.40;;;24.69;100.00;100668.50;3514521;39;100124;-83
2021/07/18 09:43:29;;;;;;;0.57;0.50;;;29.50;75.00;;;24.98;100.00;100663.91;3504101;39;103201;-81
2021/07/18 09:46:00;;;;;;;1.77;0.77;;;29.60;74.70;;;24.63;100.00;100659.34;3504040;39;103041;-82
2021/07/18 09:48:38;;;;;;;1.02;0.63;;;29.70;73.40;;;25.14;100.00;100654.91;3513959;39;100397;-81
2021/07/18 09:51:11;;;;;;;1.35;0.60;;;29.90;73.40;;;24.03;100.00;100652.47;3503720;39;100441;-81
2021/07/18 09:53:41;;;;;;;0.40;0.40;;;29.90;70.90;;;25.04;100.00;100650.09;3515351;39;101431;-82
2021/07/18 09:56:10;;;;;;;1.05;0.60;;;30.00;70.50;;;25.45;100.00;100655.50;3504927;39;102829;-81
2021/07/18 09:58:51;;;;;;;1.05;0.43;;;30.00;70.30;;;25.58;100.00;100653.28;3511538;39;100497;-82
2021/07/18 10:01:19;;;;;;;0.65;0.60;;;30.20;70.60;;;24.99;100.00;100649.16;3515524;39;100339;-83
2021/07/18 10:03:48;;;;;;;0.95;0.40;;;30.40;68.60;;;24.90;100.00;100642.38;3518205;39;101041;-83